METAR Data
IDs: Format: Raw Decoded Include TAF

Data at: 1341 UTC 11 Dec 2018

METAR for:KHLX (Hillsville/Twin Cnty, VA, US)
Text:KHLX 111335Z AUTO 30008G16KT 10SM CLR M03/M10 A3014 RMK AO2 T10301099
Temperature: -3.0°C ( 27°F)
Dewpoint: -9.9°C ( 14°F) [RH = 59%]
Pressure (altimeter):30.14 inches Hg (1020.7 mb)
Winds:from the WNW (300 degrees) at 9 MPH (8 knots; 4.1 m/s) gusting to 18 MPH (16 knots; 8.2 m/s)
Visibility:10 or more sm (16+ km)
Ceiling:at least 12,000 feet AGL
Clouds:sky clear below 12,000 feet AGL
QC Flag:automated observation with no human augmentation